Time;durP1;ratioP1;P1;durP2;ratioP2;P2;SDS_P1;SDS_P2;PMS_P1;PMS_P2;Temp;Humidity;BMP_temperature;BMP_pressure;BME280_temperature;BME280_humidity;BME280_pressure;Samples;Min_cycle;Max_cycle;Signal;HPM_P1;HPM_P2
2023/03/25 00:00:23;;;;;;;4.60;2.50;;;7.00;99.90;;;;;;8309240;28;20186;-83
2023/03/25 00:04:25;;;;;;;6.93;2.90;;;6.90;99.90;;;;;;8303612;28;20214;-83
2023/03/25 00:08:26;;;;;;;5.30;3.17;;;6.90;99.90;;;;;;8311227;28;20186;-82
2023/03/25 00:12:27;;;;;;;5.73;2.80;;;6.90;99.90;;;;;;8308490;28;20193;-82
2023/03/25 00:16:28;;;;;;;4.10;2.83;;;6.80;99.90;;;;;;8303988;28;20232;-82
2023/03/25 00:20:31;;;;;;;5.43;2.93;;;6.80;99.90;;;;;;8305118;28;20206;-83
2023/03/25 00:24:32;;;;;;;7.80;3.03;;;6.70;99.90;;;;;;8301377;28;20195;-82
2023/03/25 00:28:36;;;;;;;3.67;2.77;;;6.70;99.90;;;;;;8307466;28;20278;-83
2023/03/25 00:32:38;;;;;;;7.20;2.73;;;6.70;99.90;;;;;;8300110;28;20180;-83
2023/03/25 00:36:40;;;;;;;7.40;3.40;;;6.70;99.90;;;;;;8303100;28;20210;-82
2023/03/25 00:40:41;;;;;;;5.50;2.63;;;6.70;99.90;;;;;;8310787;28;20183;-82
2023/03/25 00:44:42;;;;;;;4.57;2.67;;;6.70;99.90;;;;;;8303535;28;20205;-83
2023/03/25 00:48:42;;;;;;;5.40;3.20;;;6.70;99.90;;;;;;8307330;28;20191;-84
2023/03/25 00:52:43;;;;;;;5.03;2.60;;;6.70;99.90;;;;;;8323012;28;20186;-83
2023/03/25 00:56:44;;;;;;;5.53;2.80;;;6.70;99.90;;;;;;8329434;28;20188;-83
2023/03/25 01:00:47;;;;;;;4.47;2.50;;;6.70;99.90;;;;;;8320219;28;20277;-82
2023/03/25 01:04:48;;;;;;;6.03;2.90;;;6.60;99.90;;;;;;8309041;28;20202;-81
2023/03/25 01:08:51;;;;;;;4.27;2.63;;;6.60;99.90;;;;;;8302001;28;20242;-83
2023/03/25 01:12:52;;;;;;;4.20;2.50;;;6.50;99.90;;;;;;8308317;28;20179;-82
2023/03/25 01:16:53;;;;;;;6.13;2.93;;;6.50;99.90;;;;;;8307045;28;20193;-82
2023/03/25 01:20:55;;;;;;;4.97;3.10;;;6.50;99.90;;;;;;8252582;28;1444776;-82
2023/03/25 01:24:55;;;;;;;6.57;3.00;;;6.40;99.90;;;;;;8301644;28;20217;-82
2023/03/25 01:28:56;;;;;;;7.23;2.90;;;6.50;99.90;;;;;;8304949;28;20182;-83
2023/03/25 01:32:57;;;;;;;4.97;3.07;;;6.40;99.90;;;;;;8304121;28;20179;-83
2023/03/25 01:36:59;;;;;;;5.87;3.07;;;6.40;99.90;;;;;;8303173;28;20195;-81
2023/03/25 01:41:00;;;;;;;3.77;2.33;;;6.40;99.90;;;;;;8297436;28;20191;-82
2023/03/25 01:45:21;;;;;;;4.50;2.77;;;6.30;99.90;;;;;;8308974;28;20248;-82
2023/03/25 01:49:28;;;;;;;5.77;3.40;;;6.30;99.90;;;;;;8295000;28;20277;-81
2023/03/25 01:53:31;;;;;;;6.00;2.60;;;6.20;99.90;;;;;;8307153;28;20164;-82
2023/03/25 01:57:32;;;;;;;4.90;2.70;;;6.20;99.90;;;;;;8303313;28;20217;-82
2023/03/25 02:01:35;;;;;;;5.17;2.80;;;6.10;99.90;;;;;;8298656;28;20197;-82
2023/03/25 02:05:50;;;;;;;4.63;2.87;;;6.00;99.90;;;;;;8300573;28;20644;-83
2023/03/25 02:09:51;;;;;;;3.97;2.33;;;5.90;99.90;;;;;;8306266;28;20184;-83
2023/03/25 02:14:01;;;;;;;5.40;2.67;;;5.90;99.90;;;;;;8306086;28;20191;-83
2023/03/25 02:18:25;;;;;;;4.53;2.97;;;5.80;99.90;;;;;;8299296;28;20203;-82
2023/03/25 02:22:38;;;;;;;6.30;2.90;;;5.90;99.90;;;;;;8298100;28;20209;-82
2023/03/25 02:27:02;;;;;;;8.30;3.43;;;5.90;99.90;;;;;;8297132;28;20207;-83
2023/03/25 02:31:09;;;;;;;5.90;3.20;;;6.00;99.90;;;;;;8293780;28;20261;-82
2023/03/25 02:35:48;;;;;;;5.40;2.87;;;6.10;99.90;;;;;;8306854;28;20202;-83
2023/03/25 02:40:14;;;;;;;7.33;2.90;;;6.10;99.90;;;;;;8296923;28;20196;-82
2023/03/25 02:44:34;;;;;;;5.27;3.20;;;6.00;99.90;;;;;;8298235;28;20203;-83
2023/03/25 02:49:02;;;;;;;8.90;3.57;;;6.00;99.90;;;;;;8307241;28;20187;-81
2023/03/25 02:53:09;;;;;;;3.93;2.73;;;6.10;99.90;;;;;;8309312;28;20178;-83
2023/03/25 02:57:14;;;;;;;4.07;2.93;;;6.20;99.90;;;;;;8304052;28;20240;-81
2023/03/25 03:01:15;;;;;;;5.60;3.03;;;6.20;99.90;;;;;;8308811;28;20187;-82
2023/03/25 03:05:24;;;;;;;3.50;2.37;;;6.20;99.90;;;;;;8311322;28;20218;-82
2023/03/25 03:09:38;;;;;;;5.17;2.60;;;6.10;99.90;;;;;;8302887;28;20175;-83
2023/03/25 03:14:14;;;;;;;5.47;2.80;;;6.00;99.90;;;;;;8308874;28;20179;-82
2023/03/25 03:18:36;;;;;;;5.60;3.17;;;5.90;99.90;;;;;;8305375;28;20203;-83
2023/03/25 03:22:51;;;;;;;5.70;3.40;;;5.90;99.90;;;;;;8303411;28;20203;-82
2023/03/25 03:27:08;;;;;;;4.17;3.40;;;5.90;99.90;;;;;;8303539;28;20215;-83
2023/03/25 03:31:27;;;;;;;5.73;4.10;;;5.90;99.90;;;;;;8300166;28;20279;-83
2023/03/25 03:36:00;;;;;;;4.97;3.40;;;5.90;99.90;;;;;;8307500;28;20225;-82
2023/03/25 03:40:06;;;;;;;7.90;3.83;;;5.90;99.90;;;;;;8304565;28;20210;-82
2023/03/25 03:44:12;;;;;;;6.50;3.80;;;6.00;99.90;;;;;;8303682;28;20236;-83
2023/03/25 03:48:28;;;;;;;5.03;3.33;;;6.00;99.90;;;;;;8301198;28;20187;-82
2023/03/25 03:52:44;;;;;;;5.60;3.03;;;6.00;99.90;;;;;;8314265;28;20205;-83
2023/03/25 03:56:52;;;;;;;6.97;2.90;;;6.00;99.90;;;;;;8315202;28;20201;-82
2023/03/25 04:01:01;;;;;;;7.00;2.83;;;5.90;99.90;;;;;;8310865;28;20501;-80
2023/03/25 04:05:03;;;;;;;6.80;3.10;;;5.80;99.90;;;;;;8313658;28;20210;-82
2023/03/25 04:09:33;;;;;;;5.00;2.90;;;5.70;99.90;;;;;;8328053;28;20198;-82
2023/03/25 04:13:43;;;;;;;5.27;3.33;;;5.60;99.90;;;;;;8340909;28;20198;-81
2023/03/25 04:17:44;;;;;;;6.13;4.07;;;5.50;99.90;;;;;;8308751;28;20194;-81
2023/03/25 04:21:48;;;;;;;6.23;4.43;;;5.40;99.90;;;;;;8302480;28;20179;-82
2023/03/25 04:25:52;;;;;;;8.03;3.10;;;5.40;99.90;;;;;;8307448;28;20214;-83
2023/03/25 04:29:52;;;;;;;6.33;4.20;;;5.40;99.90;;;;;;8309662;28;20185;-83
2023/03/25 04:33:53;;;;;;;10.93;4.50;;;5.50;99.90;;;;;;8300061;28;20192;-82
2023/03/25 04:37:56;;;;;;;4.97;3.63;;;5.60;99.90;;;;;;8310265;28;20194;-83
2023/03/25 04:42:02;;;;;;;7.03;4.13;;;5.60;99.90;;;;;;8301573;28;20195;-82
2023/03/25 04:46:03;;;;;;;5.63;3.63;;;5.70;99.90;;;;;;8297744;28;20573;-82
2023/03/25 04:50:05;;;;;;;8.03;4.70;;;5.80;99.90;;;;;;8308820;28;20210;-82
2023/03/25 04:54:06;;;;;;;6.20;5.13;;;5.80;99.90;;;;;;8301786;28;20244;-81
2023/03/25 04:58:09;;;;;;;8.13;4.47;;;5.90;99.90;;;;;;8298711;28;20224;-81
2023/03/25 05:02:12;;;;;;;7.20;4.03;;;6.00;99.90;;;;;;8304640;28;20270;-81
2023/03/25 05:06:12;;;;;;;6.30;4.07;;;6.10;99.90;;;;;;8304431;28;20527;-79
2023/03/25 05:10:14;;;;;;;8.20;4.13;;;6.20;99.90;;;;;;8299692;28;20394;-79
2023/03/25 05:14:17;;;;;;;5.07;3.40;;;6.40;99.90;;;;;;8306443;28;20197;-78
2023/03/25 05:18:18;;;;;;;5.73;3.40;;;6.50;99.90;;;;;;8308524;28;20203;-78
2023/03/25 05:22:19;;;;;;;7.03;3.03;;;6.50;99.90;;;;;;8301695;28;20186;-78
2023/03/25 05:26:20;;;;;;;3.50;2.60;;;6.50;99.90;;;;;;8302860;28;20288;-79
2023/03/25 05:30:20;;;;;;;3.50;2.70;;;6.50;99.90;;;;;;8307311;28;20175;-79
2023/03/25 05:34:21;;;;;;;3.57;2.93;;;6.60;99.90;;;;;;8300228;28;20202;-77
2023/03/25 05:38:22;;;;;;;4.93;3.50;;;6.70;99.90;;;;;;8306395;28;20191;-78
2023/03/25 05:42:24;;;;;;;5.03;3.17;;;6.80;99.90;;;;;;8302044;28;20194;-79
2023/03/25 05:46:25;;;;;;;6.87;3.03;;;6.90;99.90;;;;;;8301392;28;20210;-78
2023/03/25 05:50:28;;;;;;;5.43;3.87;;;7.10;99.90;;;;;;8302055;28;20179;-78
2023/03/25 05:54:29;;;;;;;5.30;2.97;;;7.30;99.90;;;;;;8307945;28;20218;-78
2023/03/25 05:58:31;;;;;;;4.87;3.20;;;7.40;99.90;;;;;;8303239;28;20197;-79
2023/03/25 06:02:37;;;;;;;5.60;3.87;;;7.40;99.90;;;;;;8301625;28;20186;-78
2023/03/25 06:06:39;;;;;;;5.63;3.63;;;7.50;99.90;;;;;;8308205;28;20214;-78
2023/03/25 06:10:39;;;;;;;4.57;3.63;;;7.80;99.90;;;;;;8301941;28;20183;-78
2023/03/25 06:14:41;;;;;;;8.00;4.10;;;8.30;99.90;;;;;;8296186;28;20515;-79
2023/03/25 06:18:43;;;;;;;4.70;3.00;;;8.90;99.90;;;;;;8308203;28;20207;-77
2023/03/25 06:22:44;;;;;;;5.03;2.70;;;9.40;99.90;;;;;;8311373;28;20573;-78
2023/03/25 06:26:46;;;;;;;2.63;2.10;;;9.70;99.90;;;;;;8304921;28;20211;-78
2023/03/25 06:30:48;;;;;;;2.80;1.97;;;9.70;1.00;;;;;;8310229;28;20206;-78
2023/03/25 06:34:49;;;;;;;3.53;1.97;;;9.60;1.00;;;;;;8305440;28;20333;-78
2023/03/25 06:38:50;;;;;;;2.80;1.70;;;9.50;1.00;;;;;;8303662;28;20221;-78
2023/03/25 06:42:51;;;;;;;3.23;1.80;;;9.50;1.00;;;;;;8302342;28;20190;-78
2023/03/25 06:46:52;;;;;;;2.53;1.70;;;9.60;99.90;;;;;;8305163;28;20207;-78
2023/03/25 06:50:53;;;;;;;4.33;1.63;;;9.80;99.90;;;;;;8314615;28;20194;-78
2023/03/25 06:54:54;;;;;;;3.83;1.57;;;10.00;99.90;;;;;;8306008;28;20195;-78
2023/03/25 06:58:55;;;;;;;2.50;1.30;;;10.20;26.40;;;;;;8304295;28;20209;-78
2023/03/25 07:02:57;;;;;;;2.67;1.37;;;10.30;1.00;;;;;;8312082;28;20188;-78
2023/03/25 07:06:58;;;;;;;2.70;1.13;;;10.30;1.00;;;;;;8326089;28;20278;-79
2023/03/25 07:11:09;;;;;;;2.43;1.20;;;10.50;1.00;;;;;;8323781;28;20183;-79
2023/03/25 07:15:10;;;;;;;2.50;1.27;;;10.70;1.00;;;;;;8355485;28;20299;-79
2023/03/25 07:19:10;;;;;;;4.07;1.10;;;10.90;99.90;;;;;;8350927;28;20192;-79
2023/03/25 07:23:11;;;;;;;2.43;1.00;;;11.00;99.90;;;;;;8348861;28;20390;-79
2023/03/25 07:27:13;;;;;;;4.50;1.10;;;11.00;99.90;;;;;;8355224;28;20233;-79
2023/03/25 07:31:15;;;;;;;1.73;1.03;;;11.00;99.90;;;;;;8332506;28;20205;-79
2023/03/25 07:35:16;;;;;;;1.60;1.10;;;11.20;99.90;;;;;;8314118;28;20224;-78
2023/03/25 07:39:17;;;;;;;1.30;1.00;;;11.30;99.90;;;;;;8310961;28;20670;-78
2023/03/25 07:43:18;;;;;;;1.77;1.03;;;11.50;99.90;;;;;;8298166;28;20201;-77
2023/03/25 07:47:19;;;;;;;1.73;0.90;;;11.70;99.90;;;;;;8302098;28;20501;-79
2023/03/25 07:51:20;;;;;;;2.43;0.77;;;11.80;99.90;;;;;;8303399;28;20190;-79
2023/03/25 07:55:21;;;;;;;1.97;0.80;;;12.00;99.90;;;;;;8303539;28;20198;-79
2023/03/25 07:59:22;;;;;;;1.63;0.80;;;12.30;99.90;;;;;;8310145;28;20239;-79
2023/03/25 08:03:22;;;;;;;2.57;1.00;;;12.50;99.90;;;;;;8312659;28;20256;-79
2023/03/25 08:07:23;;;;;;;2.17;1.00;;;12.90;99.90;;;;;;8309675;28;20519;-79
2023/03/25 08:11:24;;;;;;;2.00;1.00;;;13.20;98.60;;;;;;8312886;28;20256;-79
2023/03/25 08:15:25;;;;;;;2.00;1.03;;;13.60;69.00;;;;;;8301627;28;20191;-79
2023/03/25 08:19:26;;;;;;;1.83;0.90;;;13.50;30.50;;;;;;8311218;28;20203;-78
2023/03/25 08:23:27;;;;;;;3.07;0.90;;;13.60;22.60;;;;;;8303922;28;20187;-78
2023/03/25 08:27:28;;;;;;;1.63;0.80;;;13.50;26.40;;;;;;8304266;28;20214;-78
2023/03/25 08:31:31;;;;;;;3.27;0.87;;;13.10;45.70;;;;;;8301428;28;20186;-78
2023/03/25 08:35:34;;;;;;;1.00;0.80;;;12.80;97.00;;;;;;8301471;28;20203;-79
2023/03/25 08:39:38;;;;;;;2.23;1.17;;;12.70;99.90;;;;;;8307671;28;20191;-78
2023/03/25 08:43:39;;;;;;;1.57;0.80;;;12.40;99.90;;;;;;8304699;28;20175;-78
2023/03/25 08:47:41;;;;;;;2.57;0.93;;;12.60;99.90;;;;;;8319991;28;20346;-78
2023/03/25 08:51:42;;;;;;;1.07;0.87;;;13.00;99.90;;;;;;8303980;28;20179;-78
2023/03/25 08:55:42;;;;;;;1.50;0.80;;;13.30;86.70;;;;;;8304919;28;20199;-77
2023/03/25 08:59:43;;;;;;;2.13;1.00;;;13.30;76.40;;;;;;8309862;28;20187;-78
2023/03/25 09:03:45;;;;;;;1.33;0.80;;;13.50;53.40;;;;;;8303606;28;20272;-78
2023/03/25 09:07:46;;;;;;;4.00;0.90;;;13.40;27.80;;;;;;8305684;28;20182;-78
2023/03/25 09:11:47;;;;;;;1.27;0.70;;;12.90;1.00;;;;;;8304453;28;20196;-78
2023/03/25 09:15:47;;;;;;;0.70;0.40;;;12.40;1.00;;;;;;8299634;28;20198;-79
2023/03/25 09:19:49;;;;;;;1.77;0.70;;;12.30;1.00;;;;;;8303978;28;20222;-78
2023/03/25 09:23:50;;;;;;;1.27;0.70;;;12.40;13.30;;;;;;8299794;28;20183;-79
2023/03/25 09:27:51;;;;;;;0.53;0.40;;;12.30;1.00;;;;;;8306376;28;20206;-79
2023/03/25 09:31:51;;;;;;;1.70;0.80;;;12.10;1.00;;;;;;8303026;28;20213;-78
2023/03/25 09:35:53;;;;;;;0.83;0.60;;;12.10;21.60;;;;;;8308097;28;20265;-78
2023/03/25 09:39:54;;;;;;;1.00;0.50;;;12.30;18.40;;;;;;8305011;28;20183;-78
2023/03/25 09:44:08;;;;;;;2.03;0.60;;;12.80;1.00;;;;;;8297657;28;20194;-78
2023/03/25 09:48:25;;;;;;;0.63;0.33;;;13.10;1.00;;;;;;8320881;28;20197;-79
2023/03/25 09:52:41;;;;;;;1.77;0.27;;;12.80;1.00;;;;;;8301633;28;20194;-78
2023/03/25 09:56:43;;;;;;;0.67;0.40;;;13.00;1.00;;;;;;8304845;28;20223;-78
2023/03/25 10:00:46;;;;;;;4.10;0.30;;;13.50;1.00;;;;;;8313145;28;20415;-78
2023/03/25 10:05:07;;;;;;;0.70;0.37;;;14.00;1.00;;;;;;8305238;28;20549;-79
2023/03/25 10:09:09;;;;;;;0.90;0.40;;;14.40;1.00;;;;;;8308980;28;20183;-79
2023/03/25 10:13:15;;;;;;;0.70;0.40;;;15.00;1.00;;;;;;8311331;28;20190;-78
2023/03/25 10:17:30;;;;;;;0.67;0.20;;;15.30;1.00;;;;;;8303073;28;20241;-78
2023/03/25 10:21:45;;;;;;;2.43;0.40;;;15.30;1.00;;;;;;8308077;28;20207;-78
2023/03/25 10:25:52;;;;;;;1.13;0.20;;;14.90;1.00;;;;;;8312637;28;20211;-81
2023/03/25 10:29:56;;;;;;;2.37;0.53;;;14.00;1.00;;;;;;8327475;28;20194;-78
2023/03/25 10:34:04;;;;;;;1.00;0.40;;;13.50;1.00;;;;;;8326443;28;20191;-80
2023/03/25 10:38:25;;;;;;;2.97;0.60;;;13.70;1.00;;;;;;8346119;28;20233;-80
2023/03/25 10:42:34;;;;;;;2.30;0.60;;;13.60;1.00;;;;;;8346425;28;20195;-79
2023/03/25 10:46:46;;;;;;;1.87;0.50;;;13.60;1.00;;;;;;8346075;28;20215;-78
2023/03/25 10:50:49;;;;;;;0.90;0.30;;;13.60;1.00;;;;;;8346687;28;20172;-80
2023/03/25 10:54:54;;;;;;;1.20;0.27;;;13.40;1.00;;;;;;8316343;28;20190;-77
2023/03/25 10:58:57;;;;;;;1.13;0.30;;;13.50;1.00;;;;;;8313368;28;20211;-78
2023/03/25 11:02:58;;;;;;;0.97;0.40;;;13.70;1.00;;;;;;8304145;28;20210;-78
2023/03/25 11:06:59;;;;;;;1.43;0.30;;;13.20;1.00;;;;;;8304062;28;20207;-78
2023/03/25 11:11:01;;;;;;;0.83;0.30;;;13.00;1.00;;;;;;8305617;28;20211;-78
2023/03/25 11:15:01;;;;;;;0.77;0.30;;;12.70;1.00;;;;;;8301133;28;20186;-79
2023/03/25 11:19:04;;;;;;;0.67;0.30;;;12.80;1.00;;;;;;8313249;28;20245;-78
2023/03/25 11:23:23;;;;;;;1.20;0.30;;;12.90;4.80;;;;;;8311927;28;20248;-78
2023/03/25 11:27:27;;;;;;;1.23;0.33;;;12.80;46.70;;;;;;8302418;28;20229;-78
2023/03/25 11:31:33;;;;;;;1.17;0.37;;;12.30;99.90;;;;;;8305524;28;20182;-79
2023/03/25 11:35:41;;;;;;;0.70;0.33;;;11.90;99.90;;;;;;8304269;28;20221;-77
2023/03/25 11:39:47;;;;;;;0.40;0.23;;;11.50;99.90;;;;;;8310685;28;20341;-77
2023/03/25 11:43:48;;;;;;;0.80;0.30;;;11.00;99.90;;;;;;8301886;28;20185;-78
2023/03/25 11:47:50;;;;;;;0.70;0.30;;;10.60;99.90;;;;;;8307377;28;20229;-78
2023/03/25 11:52:00;;;;;;;0.87;0.47;;;10.60;1.00;;;;;;8305197;28;20234;-77
2023/03/25 11:56:04;;;;;;;0.47;0.20;;;10.80;1.00;;;;;;8322409;28;20255;-78
2023/03/25 12:00:17;;;;;;;0.80;0.40;;;11.20;99.90;;;;;;8303065;28;20277;-77
2023/03/25 12:04:21;;;;;;;1.50;0.73;;;11.70;99.90;;;;;;8303524;28;20623;-77
2023/03/25 12:08:22;;;;;;;0.60;0.47;;;12.30;99.90;;;;;;8307323;28;20187;-78
2023/03/25 12:12:38;;;;;;;1.30;0.50;;;12.90;99.90;;;;;;8302728;28;20205;-78
2023/03/25 12:16:58;;;;;;;1.80;0.80;;;13.30;99.90;;;;;;8305847;28;20183;-78
2023/03/25 12:21:08;;;;;;;0.57;0.40;;;13.20;99.90;;;;;;8297260;28;20249;-79
2023/03/25 12:25:28;;;;;;;0.97;0.50;;;12.90;99.90;;;;;;8301223;28;20210;-79
2023/03/25 12:30:00;;;;;;;0.70;0.53;;;12.80;99.90;;;;;;8304242;28;20332;-79
2023/03/25 12:34:20;;;;;;;0.80;0.50;;;12.70;99.90;;;;;;8299946;28;20191;-79
2023/03/25 12:38:59;;;;;;;1.00;0.70;;;12.90;99.90;;;;;;8301873;28;20179;-79
2023/03/25 12:43:17;;;;;;;0.80;0.50;;;12.90;97.30;;;;;;8302589;28;20191;-79
2023/03/25 12:47:38;;;;;;;1.13;0.50;;;13.00;99.90;;;;;;8299772;28;20648;-79
2023/03/25 12:51:54;;;;;;;0.80;0.50;;;13.50;82.50;;;;;;8300701;28;20201;-78
2023/03/25 12:55:58;;;;;;;0.63;0.47;;;13.70;39.30;;;;;;8303453;28;20191;-79
2023/03/25 13:00:07;;;;;;;1.53;0.63;;;13.20;12.80;;;;;;8319420;28;20221;-78
2023/03/25 13:04:24;;;;;;;0.90;0.50;;;12.60;9.50;;;;;;8303719;28;20201;-79
2023/03/25 13:08:56;;;;;;;1.30;0.40;;;12.20;52.40;;;;;;8301995;28;20188;-79
2023/03/25 13:13:00;;;;;;;2.13;0.63;;;12.40;21.80;;;;;;8316432;28;20269;-79
2023/03/25 13:17:07;;;;;;;1.47;0.60;;;12.40;1.00;;;;;;8317646;28;20273;-78
2023/03/25 13:21:20;;;;;;;1.10;0.30;;;12.90;4.90;;;;;;8300435;28;20249;-78
2023/03/25 13:25:26;;;;;;;1.07;0.40;;;12.60;5.70;;;;;;8302696;28;20321;-79
2023/03/25 13:29:38;;;;;;;0.70;0.30;;;12.20;45.00;;;;;;8307891;28;20204;-78
2023/03/25 13:33:44;;;;;;;0.83;0.40;;;12.00;88.70;;;;;;8318017;28;20180;-78
2023/03/25 13:37:52;;;;;;;0.83;0.37;;;12.00;99.90;;;;;;8322797;28;20211;-79
2023/03/25 13:42:00;;;;;;;0.40;0.23;;;12.70;85.00;;;;;;8335595;28;20232;-78
2023/03/25 13:46:17;;;;;;;0.70;0.20;;;13.50;4.90;;;;;;8351233;28;20227;-78
2023/03/25 13:50:30;;;;;;;0.63;0.30;;;13.90;1.00;;;;;;8350410;28;20202;-79
2023/03/25 13:54:41;;;;;;;0.90;0.40;;;14.00;1.00;;;;;;8348787;28;20199;-78
2023/03/25 13:58:50;;;;;;;3.33;0.40;;;13.90;1.00;;;;;;8329509;28;20199;-78
2023/03/25 14:02:56;;;;;;;0.47;0.30;;;14.00;1.00;;;;;;8305901;28;20202;-77
2023/03/25 14:07:16;;;;;;;1.00;0.40;;;14.10;1.00;;;;;;8317970;28;20254;-78
2023/03/25 14:11:35;;;;;;;2.27;0.40;;;13.90;1.00;;;;;;8314639;28;20187;-79
2023/03/25 14:15:41;;;;;;;0.87;0.40;;;13.80;1.00;;;;;;8301215;28;20222;-78
2023/03/25 14:19:47;;;;;;;1.13;0.40;;;13.80;1.00;;;;;;8304323;28;20294;-79
2023/03/25 14:24:00;;;;;;;0.70;0.40;;;13.90;1.00;;;;;;8299060;28;20197;-79
2023/03/25 14:28:02;;;;;;;0.63;0.40;;;13.90;1.00;;;;;;8300900;28;20203;-79
2023/03/25 14:32:31;;;;;;;1.13;0.63;;;13.80;1.00;;;;;;8300272;28;20191;-79
2023/03/25 14:36:38;;;;;;;0.70;0.50;;;13.70;1.00;;;;;;8298617;28;20203;-79
2023/03/25 14:40:38;;;;;;;1.20;0.50;;;13.70;1.00;;;;;;8302058;28;20188;-77
2023/03/25 14:44:48;;;;;;;0.50;0.40;;;13.90;1.00;;;;;;8307609;28;20210;-78
2023/03/25 14:49:17;;;;;;;1.93;0.70;;;14.10;1.00;;;;;;8306671;28;20179;-78
2023/03/25 14:53:18;;;;;;;0.93;0.50;;;14.20;1.00;;;;;;8304776;28;20222;-78
2023/03/25 14:57:24;;;;;;;0.90;0.40;;;14.00;1.00;;;;;;8313701;28;20187;-78
2023/03/25 15:01:35;;;;;;;0.53;0.43;;;13.80;1.00;;;;;;8317882;28;20229;-79
2023/03/25 15:05:37;;;;;;;0.87;0.40;;;13.50;1.00;;;;;;8303437;28;20225;-79
2023/03/25 15:09:52;;;;;;;3.10;0.60;;;13.30;1.00;;;;;;8311386;28;20191;-79
2023/03/25 15:14:03;;;;;;;2.10;0.63;;;13.20;1.00;;;;;;8309982;28;20195;-79
2023/03/25 15:18:04;;;;;;;0.63;0.47;;;13.10;1.00;;;;;;8305455;28;20202;-78
2023/03/25 15:22:16;;;;;;;1.57;0.43;;;12.90;1.00;;;;;;8304228;28;20187;-78
2023/03/25 15:26:31;;;;;;;1.03;0.40;;;12.70;1.00;;;;;;8308950;28;20210;-79
2023/03/25 15:30:58;;;;;;;0.70;0.43;;;12.40;1.00;;;;;;8302447;28;20187;-79
2023/03/25 15:35:37;;;;;;;0.60;0.30;;;12.30;1.00;;;;;;8298849;28;20211;-79
2023/03/25 15:40:04;;;;;;;0.67;0.30;;;12.50;1.00;;;;;;8271515;28;20216;-79
2023/03/25 15:44:10;;;;;;;0.70;0.30;;;12.70;1.00;;;;;;8308159;28;20190;-79
2023/03/25 15:48:44;;;;;;;0.63;0.33;;;12.60;1.00;;;;;;8310140;28;20192;-78
2023/03/25 15:53:10;;;;;;;0.40;0.30;;;12.30;1.00;;;;;;8288484;28;20198;-78
2023/03/25 15:57:39;;;;;;;1.67;0.43;;;12.20;1.00;;;;;;8303437;28;20221;-78
2023/03/25 16:01:46;;;;;;;1.00;0.40;;;12.10;1.00;;;;;;8304460;28;20189;-78
2023/03/25 16:05:54;;;;;;;2.43;0.50;;;12.30;1.00;;;;;;8303791;28;20535;-78
2023/03/25 16:10:02;;;;;;;0.93;0.50;;;12.40;1.00;;;;;;8308178;28;20183;-78
2023/03/25 16:14:11;;;;;;;1.13;0.30;;;12.40;1.00;;;;;;8307170;28;20230;-78
2023/03/25 16:18:15;;;;;;;0.70;0.40;;;12.40;1.00;;;;;;8303480;28;20253;-79
2023/03/25 16:22:30;;;;;;;1.03;0.40;;;12.30;1.00;;;;;;8316791;28;20284;-79
2023/03/25 16:26:37;;;;;;;0.53;0.30;;;12.20;1.00;;;;;;8307807;28;21107;-79
2023/03/25 16:30:41;;;;;;;1.03;0.70;;;12.00;1.00;;;;;;8303868;28;20194;-79
2023/03/25 16:34:42;;;;;;;2.23;0.70;;;11.70;1.00;;;;;;8308946;28;20443;-79
2023/03/25 16:38:43;;;;;;;2.37;0.73;;;11.50;1.00;;;;;;8306651;28;20187;-78
2023/03/25 16:42:44;;;;;;;1.87;0.77;;;11.30;1.00;;;;;;8300843;28;20280;-79
2023/03/25 16:46:46;;;;;;;1.27;0.70;;;11.10;1.00;;;;;;8307278;28;20358;-78
2023/03/25 16:50:48;;;;;;;1.40;0.60;;;10.90;1.00;;;;;;8310723;28;20189;-78
2023/03/25 16:54:52;;;;;;;0.83;0.50;;;10.70;1.00;;;;;;8320354;28;20205;-78
2023/03/25 16:59:05;;;;;;;1.07;0.40;;;10.60;1.00;;;;;;8327048;28;20206;-79
2023/03/25 17:03:13;;;;;;;1.33;0.63;;;10.70;1.00;;;;;;8339026;28;20178;-79
2023/03/25 17:07:19;;;;;;;1.10;0.50;;;10.80;1.00;;;;;;8336381;28;20609;-79
2023/03/25 17:11:24;;;;;;;2.20;0.33;;;10.80;1.00;;;;;;8349023;28;20210;-80
2023/03/25 17:15:26;;;;;;;0.80;0.40;;;10.40;47.60;;;;;;8337856;28;20194;-79
2023/03/25 17:19:27;;;;;;;0.83;0.53;;;9.90;99.90;;;;;;8304108;28;20214;-78
2023/03/25 17:23:41;;;;;;;0.73;0.50;;;9.60;99.90;;;;;;8307269;28;20603;-79
2023/03/25 17:27:42;;;;;;;1.10;0.40;;;9.40;99.90;;;;;;8314603;28;20206;-78
2023/03/25 17:31:55;;;;;;;0.40;0.30;;;9.20;99.90;;;;;;8302390;28;20186;-78
2023/03/25 17:35:56;;;;;;;0.97;0.33;;;9.00;99.90;;;;;;8303567;28;20286;-78
2023/03/25 17:40:10;;;;;;;0.83;0.47;;;8.90;99.90;;;;;;8308605;28;20195;-79
2023/03/25 17:44:16;;;;;;;1.50;0.43;;;8.80;99.90;;;;;;8297555;28;20216;-82
2023/03/25 17:48:17;;;;;;;1.27;0.70;;;8.90;99.90;;;;;;8295755;28;20187;-83
2023/03/25 17:52:19;;;;;;;2.60;1.40;;;8.70;99.90;;;;;;8305269;28;20214;-83
2023/03/25 17:56:24;;;;;;;2.03;1.17;;;8.50;99.90;;;;;;8298918;28;20187;-82
2023/03/25 18:00:25;;;;;;;3.23;1.70;;;8.40;1.00;;;;;;8283452;28;20187;-83
2023/03/25 18:04:26;;;;;;;2.63;1.40;;;8.30;1.00;;;;;;8302182;28;20207;-83
2023/03/25 18:08:27;;;;;;;4.43;1.23;;;8.20;1.00;;;;;;8305472;28;20194;-85
2023/03/25 18:12:28;;;;;;;1.60;1.07;;;8.10;1.00;;;;;;8305732;28;20221;-83
2023/03/25 18:16:29;;;;;;;1.63;1.13;;;8.00;1.00;;;;;;8305969;28;20174;-84
2023/03/25 18:20:33;;;;;;;2.13;1.10;;;7.80;1.00;;;;;;8312073;28;20202;-84
2023/03/25 18:24:34;;;;;;;1.13;0.70;;;7.70;1.00;;;;;;8305855;28;20289;-83
2023/03/25 18:28:35;;;;;;;2.37;1.03;;;7.70;1.00;;;;;;8323652;28;20203;-83
2023/03/25 18:32:36;;;;;;;2.20;1.07;;;7.60;1.00;;;;;;8306311;28;20205;-83
2023/03/25 18:36:37;;;;;;;2.77;0.90;;;7.50;1.00;;;;;;8313977;28;20589;-83
2023/03/25 18:40:38;;;;;;;0.93;0.67;;;7.40;1.00;;;;;;8313002;28;20277;-83
2023/03/25 18:44:40;;;;;;;2.13;0.70;;;7.30;1.00;;;;;;8313518;28;20228;-83
2023/03/25 18:48:42;;;;;;;2.90;1.00;;;7.20;1.00;;;;;;8311738;28;20236;-83
2023/03/25 18:52:44;;;;;;;1.80;0.90;;;7.20;1.00;;;;;;8308816;28;20178;-82
2023/03/25 18:56:45;;;;;;;1.20;0.67;;;7.20;1.00;;;;;;8310985;28;20278;-83
2023/03/25 19:00:48;;;;;;;2.13;1.13;;;7.20;1.00;;;;;;8307239;28;20183;-83
2023/03/25 19:04:49;;;;;;;3.87;1.80;;;7.20;1.00;;;;;;8305751;28;20207;-82
2023/03/25 19:08:50;;;;;;;2.63;1.50;;;7.20;1.00;;;;;;8306457;28;20200;-83
2023/03/25 19:12:51;;;;;;;4.63;2.07;;;7.00;1.00;;;;;;8304405;28;20194;-84
2023/03/25 19:16:52;;;;;;;3.17;2.20;;;6.90;1.00;;;;;;8312434;28;20194;-82
2023/03/25 19:20:53;;;;;;;5.43;2.60;;;6.70;37.90;;;;;;8308065;28;20478;-83
2023/03/25 19:24:54;;;;;;;5.07;2.47;;;6.50;99.90;;;;;;8307699;28;20215;-83
2023/03/25 19:28:55;;;;;;;4.83;2.73;;;6.50;99.90;;;;;;8309499;28;20205;-82
2023/03/25 19:32:56;;;;;;;5.57;3.10;;;6.50;99.90;;;;;;8308706;28;20549;-84
2023/03/25 19:37:01;;;;;;;4.07;2.87;;;6.40;99.90;;;;;;8312537;28;20206;-82
2023/03/25 19:41:08;;;;;;;5.00;2.90;;;6.50;99.90;;;;;;8302304;28;20175;-82
2023/03/25 19:45:12;;;;;;;6.47;3.30;;;6.60;1.00;;;;;;8305551;28;20218;-83
2023/03/25 19:49:13;;;;;;;7.20;2.87;;;6.80;99.90;;;;;;8305396;28;20257;-83
2023/03/25 19:53:14;;;;;;;8.07;3.50;;;6.80;99.90;;;;;;8313804;28;20264;-84
2023/03/25 19:57:15;;;;;;;8.83;3.20;;;7.00;99.90;;;;;;8315747;28;20261;-82
2023/03/25 20:01:16;;;;;;;4.80;2.57;;;6.90;99.90;;;;;;8317806;28;20187;-85
2023/03/25 20:05:19;;;;;;;5.03;2.90;;;6.80;99.90;;;;;;8312421;28;20335;-83
2023/03/25 20:09:20;;;;;;;6.73;3.30;;;6.70;99.90;;;;;;8324174;28;20187;-83
2023/03/25 20:13:21;;;;;;;5.40;3.13;;;6.60;99.90;;;;;;8325038;28;20195;-83
2023/03/25 20:17:22;;;;;;;6.10;2.77;;;6.60;99.90;;;;;;8317643;28;20187;-82
2023/03/25 20:21:24;;;;;;;6.47;3.37;;;6.60;99.90;;;;;;8306524;28;20217;-83
2023/03/25 20:25:25;;;;;;;5.60;3.23;;;6.70;99.90;;;;;;8307479;28;20218;-84
2023/03/25 20:29:26;;;;;;;6.97;3.40;;;6.90;99.90;;;;;;8306827;28;20191;-81
2023/03/25 20:33:27;;;;;;;7.13;3.23;;;7.00;70.80;;;;;;8302774;28;20187;-83
2023/03/25 20:37:28;;;;;;;6.33;2.93;;;6.90;12.30;;;;;;8299048;28;20214;-83
2023/03/25 20:41:29;;;;;;;5.73;2.73;;;6.80;24.50;;;;;;8301303;28;20197;-82
2023/03/25 20:45:31;;;;;;;5.93;2.73;;;6.70;28.80;;;;;;8301038;28;20300;-83
2023/03/25 20:49:32;;;;;;;5.30;2.50;;;6.60;44.90;;;;;;8305932;28;20179;-83
2023/03/25 20:53:33;;;;;;;4.37;2.10;;;6.60;67.90;;;;;;8309254;28;20179;-84
2023/03/25 20:57:36;;;;;;;5.20;2.07;;;6.70;1.00;;;;;;8300857;28;20191;-83
2023/03/25 21:01:36;;;;;;;3.60;1.57;;;6.90;1.00;;;;;;8304766;28;20281;-83
2023/03/25 21:05:43;;;;;;;4.90;1.60;;;7.00;1.00;;;;;;8292313;28;20223;-83
2023/03/25 21:09:46;;;;;;;3.43;1.90;;;7.20;1.00;;;;;;8298617;28;20190;-83
2023/03/25 21:13:49;;;;;;;2.07;1.60;;;7.20;1.00;;;;;;8308551;28;20183;-82
2023/03/25 21:17:50;;;;;;;3.50;1.80;;;7.30;1.00;;;;;;8302797;28;20278;-84
2023/03/25 21:21:51;;;;;;;3.67;1.53;;;7.20;1.00;;;;;;8299494;28;20198;-83
2023/03/25 21:25:58;;;;;;;2.80;1.70;;;7.10;1.00;;;;;;8307100;28;20210;-84
2023/03/25 21:29:59;;;;;;;6.33;2.27;;;6.90;1.00;;;;;;8310506;28;20194;-83
2023/03/25 21:34:01;;;;;;;3.67;1.80;;;6.80;1.00;;;;;;8302055;28;20274;-82